createdAt,value
2023-03-07T00:00:38.071Z,67.30
2023-03-07T00:03:25.285Z,67.57
2023-03-07T00:06:26.794Z,67.87
2023-03-07T00:09:18.365Z,67.28
2023-03-07T00:12:05.288Z,67.47
2023-03-07T00:14:52.433Z,67.61
2023-03-07T00:17:39.318Z,67.16
2023-03-07T00:20:30.313Z,67.61
2023-03-07T00:23:17.114Z,67.73
2023-03-07T00:26:04.169Z,67.81
2023-03-07T00:28:51.760Z,67.80
2023-03-07T00:31:40.065Z,67.58
2023-03-07T00:34:27.121Z,67.73
2023-03-07T00:37:14.094Z,67.60
2023-03-07T00:40:02.340Z,67.67
2023-03-07T00:42:49.288Z,68.12
2023-03-07T00:45:36.193Z,68.00
2023-03-07T00:48:23.495Z,68.00
2023-03-07T00:51:11.297Z,68.00
2023-03-07T00:53:58.644Z,68.05
2023-03-07T00:56:46.151Z,68.07
2023-03-07T00:59:33.324Z,68.18
2023-03-07T01:02:20.235Z,68.10
2023-03-07T01:05:07.601Z,68.15
2023-03-07T01:07:55.173Z,68.20
2023-03-07T01:10:42.225Z,68.46
2023-03-07T01:13:30.666Z,67.83
2023-03-07T01:16:37.274Z,68.20
2023-03-07T01:19:27.507Z,68.17
2023-03-07T01:22:15.021Z,68.05
2023-03-07T01:25:02.108Z,68.31
2023-03-07T01:27:49.272Z,68.24
2023-03-07T01:30:36.250Z,68.38
2023-03-07T01:33:23.527Z,68.36
2023-03-07T01:36:10.552Z,68.77
2023-03-07T01:38:57.903Z,68.75
2023-03-07T01:41:45.115Z,68.37
2023-03-07T01:44:44.113Z,68.62
2023-03-07T01:47:31.132Z,68.67
2023-03-07T01:50:22.034Z,68.72
2023-03-07T01:53:13.177Z,68.59
2023-03-07T01:56:00.526Z,68.56
2023-03-07T01:58:47.491Z,68.65
2023-03-07T02:01:35.058Z,68.76
2023-03-07T02:04:35.333Z,68.90
2023-03-07T02:07:23.566Z,68.93
2023-03-07T02:10:11.963Z,68.83
2023-03-07T02:13:00.477Z,69.00
2023-03-07T02:16:08.396Z,68.80
2023-03-07T02:19:04.270Z,68.49
2023-03-07T02:22:10.630Z,68.82
2023-03-07T02:25:08.554Z,68.85
2023-03-07T02:27:57.290Z,68.71
2023-03-07T02:30:45.503Z,68.98
2023-03-07T02:33:32.552Z,68.99
2023-03-07T02:36:30.865Z,68.53
2023-03-07T02:39:34.010Z,68.96
2023-03-07T02:42:31.230Z,69.14
2023-03-07T02:45:29.108Z,69.01
2023-03-07T02:48:16.080Z,69.13
2023-03-07T02:51:02.965Z,69.08
2023-03-07T02:53:50.005Z,69.08
2023-03-07T02:56:36.986Z,69.23
2023-03-07T02:59:24.101Z,69.13
2023-03-07T03:02:11.214Z,69.25
2023-03-07T03:04:58.391Z,69.14
2023-03-07T03:07:45.439Z,69.39
2023-03-07T03:10:32.519Z,69.05
2023-03-07T03:13:20.787Z,69.41
2023-03-07T03:16:07.998Z,69.00
2023-03-07T03:18:55.094Z,69.43
2023-03-07T03:21:42.084Z,69.34
2023-03-07T03:24:29.578Z,69.42
2023-03-07T03:27:17.605Z,69.12
2023-03-07T03:30:07.189Z,69.97
2023-03-07T03:32:57.766Z,69.50
2023-03-07T03:35:44.928Z,69.43
2023-03-07T03:38:31.883Z,69.54
2023-03-07T03:41:19.415Z,69.25
2023-03-07T03:44:08.270Z,69.66
2023-03-07T03:46:56.094Z,69.42
2023-03-07T03:49:44.065Z,69.48
2023-03-07T03:52:31.208Z,69.32
2023-03-07T03:55:18.637Z,69.36
2023-03-07T03:58:05.744Z,69.66
2023-03-07T04:00:52.669Z,69.70
2023-03-07T04:03:40.466Z,69.52
2023-03-07T04:06:30.337Z,69.66
2023-03-07T04:09:18.306Z,69.41
2023-03-07T04:12:07.568Z,69.68
2023-03-07T04:14:54.818Z,69.68
2023-03-07T04:17:41.762Z,69.69
2023-03-07T04:20:29.502Z,69.84
2023-03-07T04:23:16.477Z,69.61
2023-03-07T04:26:10.709Z,69.48
2023-03-07T04:28:43.620Z,69.55
2023-03-07T04:31:38.121Z,69.83
2023-03-07T04:34:26.105Z,69.77
2023-03-07T04:37:13.104Z,69.96
2023-03-07T04:40:00.144Z,70.08
2023-03-07T04:42:47.182Z,70.02
2023-03-07T04:45:34.124Z,69.54
2023-03-07T04:48:21.573Z,69.87
2023-03-07T04:51:10.068Z,70.17
2023-03-07T04:53:57.525Z,69.91
2023-03-07T04:56:44.442Z,69.99
2023-03-07T04:59:32.076Z,70.00
2023-03-07T05:02:19.112Z,70.25
2023-03-07T05:05:06.243Z,69.94
2023-03-07T05:07:54.266Z,69.92
2023-03-07T05:10:41.858Z,69.71
2023-03-07T05:13:28.833Z,69.97
2023-03-07T05:16:17.882Z,70.21
2023-03-07T05:19:06.187Z,69.91
2023-03-07T05:21:53.525Z,70.07
2023-03-07T05:24:40.749Z,70.20
2023-03-07T05:27:27.760Z,70.16
2023-03-07T05:30:14.613Z,70.24
2023-03-07T05:33:01.791Z,70.37
2023-03-07T05:35:48.899Z,70.11
2023-03-07T05:38:36.918Z,70.28
2023-03-07T05:41:24.010Z,70.14
2023-03-07T05:44:11.124Z,70.25
2023-03-07T05:46:58.202Z,70.22
2023-03-07T05:49:45.274Z,69.95
2023-03-07T05:52:33.159Z,70.42
2023-03-07T05:55:20.479Z,70.57
2023-03-07T05:58:07.424Z,70.22
2023-03-07T06:00:54.825Z,70.50
2023-03-07T06:03:43.173Z,70.15
2023-03-07T06:06:30.699Z,70.40
2023-03-07T06:09:17.695Z,70.19
2023-03-07T06:12:04.861Z,70.32
2023-03-07T06:14:52.847Z,70.28
2023-03-07T06:17:40.808Z,70.25
2023-03-07T06:20:29.583Z,70.37
2023-03-07T06:23:16.526Z,70.34
2023-03-07T06:26:03.580Z,70.24
2023-03-07T06:28:50.852Z,70.68
2023-03-07T06:31:39.559Z,70.13
2023-03-07T06:34:27.071Z,70.83
2023-03-07T06:37:14.121Z,70.50
2023-03-07T06:40:01.874Z,70.72
2023-03-07T06:42:49.366Z,70.04
2023-03-07T06:45:39.204Z,70.98
2023-03-07T06:48:26.840Z,70.96
2023-03-07T06:51:14.479Z,70.82
2023-03-07T06:54:04.112Z,70.22
2023-03-07T06:56:51.026Z,70.75
2023-03-07T06:59:41.235Z,70.82
2023-03-07T07:02:33.443Z,70.31
2023-03-07T07:05:20.622Z,70.98
2023-03-07T07:08:07.653Z,70.36
2023-03-07T07:10:54.792Z,70.54
2023-03-07T07:13:41.945Z,70.99
2023-03-07T07:16:31.727Z,70.51
2023-03-07T07:19:19.067Z,70.64
2023-03-07T07:22:06.777Z,71.03
2023-03-07T07:24:54.237Z,71.25
2023-03-07T07:27:41.220Z,70.53
2023-03-07T07:30:29.006Z,71.30
2023-03-07T07:33:16.666Z,70.58
2023-03-07T07:36:07.555Z,70.94
2023-03-07T07:38:56.107Z,70.77
2023-03-07T07:41:44.125Z,70.97
2023-03-07T07:44:31.983Z,70.81
2023-03-07T07:47:23.410Z,71.40
2023-03-07T07:50:10.199Z,71.55
2023-03-07T07:52:57.470Z,71.58
2023-03-07T07:55:44.671Z,70.72
2023-03-07T07:58:31.953Z,70.96
2023-03-07T08:01:19.234Z,71.46
2023-03-07T08:04:06.712Z,71.72
2023-03-07T08:06:53.589Z,71.00
2023-03-07T08:09:40.708Z,71.74
2023-03-07T08:12:31.386Z,71.45
2023-03-07T08:15:18.351Z,70.87
2023-03-07T08:18:05.229Z,71.34
2023-03-07T08:20:52.444Z,71.58
2023-03-07T08:23:41.041Z,71.22
2023-03-07T08:26:30.742Z,71.71
2023-03-07T08:29:18.551Z,71.67
2023-03-07T08:32:06.142Z,71.75
2023-03-07T08:34:53.313Z,71.06
2023-03-07T08:37:40.315Z,70.85
2023-03-07T08:40:28.023Z,71.52
2023-03-07T08:43:14.956Z,71.23
2023-03-07T08:46:02.166Z,71.54
2023-03-07T08:48:49.723Z,72.16
2023-03-07T08:51:38.222Z,71.11
2023-03-07T08:54:25.442Z,71.79
2023-03-07T08:57:12.548Z,71.15
2023-03-07T08:59:59.623Z,71.85
2023-03-07T09:02:46.645Z,71.50
2023-03-07T09:05:33.470Z,71.63
2023-03-07T09:08:20.387Z,71.36
2023-03-07T09:11:07.526Z,72.12
2023-03-07T09:13:54.457Z,72.53
2023-03-07T09:16:42.139Z,71.25
2023-03-07T09:19:29.247Z,72.54
2023-03-07T09:22:16.250Z,72.28
2023-03-07T09:25:03.303Z,71.79
2023-03-07T09:27:51.932Z,71.19
2023-03-07T09:30:38.974Z,72.17
2023-03-07T09:33:26.098Z,72.18
2023-03-07T09:36:13.232Z,71.22
2023-03-07T09:39:00.543Z,71.47
2023-03-07T09:42:24.914Z,72.07
2023-03-07T09:45:21.124Z,72.54
2023-03-07T09:48:40.815Z,72.42
2023-03-07T09:51:36.636Z,71.95
2023-03-07T09:55:01.136Z,72.19
2023-03-07T09:57:52.158Z,71.31
2023-03-07T10:00:56.651Z,71.22
2023-03-07T10:04:06.878Z,72.27
2023-03-07T10:06:59.253Z,71.59
2023-03-07T10:09:46.373Z,71.63
2023-03-07T10:12:49.139Z,71.64
2023-03-07T10:15:44.916Z,71.72
2023-03-07T10:19:19.444Z,71.50
2023-03-07T10:22:40.183Z,72.55
2023-03-07T10:25:35.718Z,72.68
2023-03-07T10:28:42.421Z,71.58
2023-03-07T10:31:44.910Z,72.50
2023-03-07T10:34:43.293Z,71.79
2023-03-07T10:37:41.820Z,72.26
2023-03-07T10:40:37.006Z,72.68
2023-03-07T10:43:25.453Z,72.01
2023-03-07T10:46:27.101Z,71.95
2023-03-07T10:49:20.298Z,72.61
2023-03-07T10:52:39.785Z,71.87
2023-03-07T10:55:54.365Z,71.45
2023-03-07T10:58:45.860Z,72.79
2023-03-07T11:01:39.488Z,72.36
2023-03-07T11:04:39.730Z,71.65
2023-03-07T11:07:53.168Z,71.48
2023-03-07T11:10:59.122Z,72.14
2023-03-07T11:13:47.018Z,72.12
2023-03-07T11:16:42.393Z,72.01
2023-03-07T11:19:51.075Z,71.95
2023-03-07T11:22:43.856Z,71.75
2023-03-07T11:25:37.130Z,72.00
2023-03-07T11:28:24.199Z,71.82
2023-03-07T11:31:11.065Z,72.45
2023-03-07T11:34:04.784Z,72.40
2023-03-07T11:36:55.209Z,72.75
2023-03-07T11:39:51.410Z,72.57
2023-03-07T11:42:47.243Z,71.59
2023-03-07T11:45:57.625Z,72.30
2023-03-07T11:49:07.571Z,71.78
2023-03-07T11:51:57.326Z,72.02
2023-03-07T11:55:12.026Z,71.68
2023-03-07T11:58:10.806Z,72.72
2023-03-07T12:01:16.485Z,72.94
2023-03-07T12:04:12.406Z,72.71
2023-03-07T12:07:02.346Z,72.71
2023-03-07T12:10:10.562Z,72.17
2023-03-07T12:13:00.654Z,71.80
2023-03-07T12:15:53.575Z,72.52
2023-03-07T12:18:52.198Z,72.90
2023-03-07T12:22:11.963Z,72.96
2023-03-07T12:25:10.907Z,71.56
2023-03-07T12:28:07.513Z,72.36
2023-03-07T12:30:57.229Z,72.16
2023-03-07T12:33:51.014Z,72.20
2023-03-07T12:37:06.471Z,72.24
2023-03-07T12:39:53.439Z,72.69
2023-03-07T12:43:03.949Z,72.68
2023-03-07T12:46:16.828Z,71.92
2023-03-07T12:49:28.065Z,72.28
2023-03-07T12:52:23.057Z,72.86
2023-03-07T12:55:19.443Z,72.54
2023-03-07T12:58:16.121Z,72.73
2023-03-07T13:01:09.355Z,72.20
2023-03-07T13:04:09.285Z,71.94
2023-03-07T13:06:57.455Z,71.91
2023-03-07T13:09:46.179Z,72.04
2023-03-07T13:12:36.187Z,72.30
2023-03-07T13:15:35.122Z,71.78
2023-03-07T13:18:22.333Z,72.10
2023-03-07T13:21:27.882Z,71.73
2023-03-07T13:24:51.590Z,71.95
2023-03-07T13:27:42.589Z,72.99
2023-03-07T13:30:32.510Z,72.67
2023-03-07T13:33:43.839Z,72.43
2023-03-07T13:36:52.594Z,72.53
2023-03-07T13:39:57.817Z,72.27
2023-03-07T13:43:07.761Z,72.99
2023-03-07T13:45:57.663Z,72.89
2023-03-07T13:48:47.519Z,72.27
2023-03-07T13:51:34.505Z,72.86
2023-03-07T13:54:29.684Z,72.36
2023-03-07T13:57:16.666Z,72.48
2023-03-07T14:00:10.432Z,72.39
2023-03-07T14:03:01.529Z,71.90
2023-03-07T14:05:53.231Z,71.94
2023-03-07T14:08:45.827Z,72.21
2023-03-07T14:11:54.090Z,71.93
2023-03-07T14:14:56.405Z,72.37
2023-03-07T14:18:03.538Z,73.04
2023-03-07T14:21:25.687Z,72.56
2023-03-07T14:24:55.610Z,72.21
2023-03-07T14:27:42.520Z,71.96
2023-03-07T14:30:36.218Z,71.97
2023-03-07T14:33:23.282Z,72.88
2023-03-07T14:36:10.338Z,71.95
2023-03-07T14:39:02.640Z,71.99
2023-03-07T14:42:07.541Z,72.10
2023-03-07T14:45:00.691Z,72.60
2023-03-07T14:47:59.499Z,72.46
2023-03-07T14:50:48.862Z,72.23
2023-03-07T14:53:41.649Z,72.96
2023-03-07T14:56:29.844Z,72.59
2023-03-07T14:59:01.013Z,72.53
2023-03-07T15:01:39.006Z,73.13
2023-03-07T15:04:21.238Z,72.66
2023-03-07T15:06:54.623Z,73.33
2023-03-07T15:09:22.123Z,72.68
2023-03-07T15:11:57.843Z,72.87
2023-03-07T15:14:32.164Z,73.06
2023-03-07T15:17:05.060Z,72.90
2023-03-07T15:19:41.717Z,73.08
2023-03-07T15:22:23.682Z,71.87
2023-03-07T15:24:51.970Z,73.02
2023-03-07T15:27:25.251Z,73.07
2023-03-07T15:29:52.522Z,72.38
2023-03-07T15:32:30.411Z,72.11
2023-03-07T15:35:03.918Z,72.75
2023-03-07T15:37:35.210Z,72.28
2023-03-07T15:40:11.690Z,72.88
2023-03-07T15:42:54.845Z,72.91
2023-03-07T15:45:35.619Z,73.05
2023-03-07T15:48:11.316Z,72.25
2023-03-07T15:50:38.365Z,73.20
2023-03-07T15:53:24.665Z,72.55
2023-03-07T15:56:00.654Z,72.12
2023-03-07T15:58:28.787Z,72.71
2023-03-07T16:01:06.254Z,73.27
2023-03-07T16:03:33.767Z,72.71
2023-03-07T16:06:01.921Z,72.18
2023-03-07T16:08:29.045Z,71.95
2023-03-07T16:10:57.899Z,73.22
2023-03-07T16:13:32.987Z,72.79
2023-03-07T16:16:05.866Z,73.13
2023-03-07T16:18:33.709Z,72.10
2023-03-07T16:21:00.718Z,72.15
2023-03-07T16:23:31.074Z,71.98
2023-03-07T16:25:59.532Z,72.19
2023-03-07T16:28:26.538Z,71.79
2023-03-07T16:30:53.575Z,72.72
2023-03-07T16:33:20.488Z,72.84
2023-03-07T16:35:47.764Z,72.79
2023-03-07T16:38:14.707Z,71.87
2023-03-07T16:40:44.117Z,72.53
2023-03-07T16:43:34.269Z,73.09
2023-03-07T16:46:04.331Z,71.93
2023-03-07T16:48:31.924Z,72.70
2023-03-07T16:50:58.919Z,72.28
2023-03-07T16:53:26.696Z,72.27
2023-03-07T16:55:55.957Z,72.32
2023-03-07T16:58:26.930Z,72.40
2023-03-07T17:00:54.208Z,73.25
2023-03-07T17:03:21.623Z,72.57
2023-03-07T17:05:48.524Z,72.32
2023-03-07T17:08:15.388Z,71.88
2023-03-07T17:10:44.678Z,72.86
2023-03-07T17:13:17.596Z,73.12
2023-03-07T17:15:45.719Z,73.12
2023-03-07T17:18:13.307Z,72.49
2023-03-07T17:20:41.929Z,72.08
2023-03-07T17:23:10.167Z,72.90
2023-03-07T17:25:37.478Z,72.80
2023-03-07T17:28:08.560Z,71.98
2023-03-07T17:30:35.597Z,71.86
2023-03-07T17:33:02.718Z,73.44
2023-03-07T17:35:30.673Z,72.56
2023-03-07T17:37:57.893Z,72.87
2023-03-07T17:40:24.768Z,71.97
2023-03-07T17:42:52.190Z,72.10
2023-03-07T17:45:19.269Z,72.58
2023-03-07T17:47:50.510Z,72.86
2023-03-07T17:50:19.504Z,72.59
2023-03-07T17:52:46.495Z,72.46
2023-03-07T17:55:14.887Z,73.27
2023-03-07T17:57:41.769Z,73.01
2023-03-07T18:00:13.179Z,72.97
2023-03-07T18:02:43.850Z,72.34
2023-03-07T18:05:12.993Z,73.31
2023-03-07T18:07:41.460Z,73.07
2023-03-07T18:10:10.101Z,72.21
2023-03-07T18:12:39.197Z,72.83
2023-03-07T18:15:14.251Z,72.02
2023-03-07T18:17:48.421Z,72.96
2023-03-07T18:20:19.223Z,72.13
2023-03-07T18:22:46.230Z,72.83
2023-03-07T18:25:15.644Z,72.30
2023-03-07T18:27:42.516Z,72.46
2023-03-07T18:30:11.879Z,72.17
2023-03-07T18:32:39.031Z,73.26
2023-03-07T18:35:07.782Z,72.52
2023-03-07T18:37:34.731Z,72.21
2023-03-07T18:40:01.693Z,71.89
2023-03-07T18:42:28.631Z,71.94
2023-03-07T18:44:55.680Z,72.40
2023-03-07T18:47:22.712Z,73.04
2023-03-07T18:49:51.294Z,72.50
2023-03-07T18:52:18.836Z,72.59
2023-03-07T18:54:47.813Z,72.90
2023-03-07T18:57:14.716Z,72.86
2023-03-07T18:59:41.614Z,71.87
2023-03-07T19:02:10.075Z,72.88
2023-03-07T19:04:37.490Z,72.09
2023-03-07T19:07:04.374Z,73.20
2023-03-07T19:09:31.691Z,71.88
2023-03-07T19:11:58.638Z,72.30
2023-03-07T19:14:26.453Z,72.81
2023-03-07T19:16:53.623Z,72.87
2023-03-07T19:19:20.581Z,72.42
2023-03-07T19:21:47.618Z,72.75
2023-03-07T19:24:14.686Z,72.44
2023-03-07T19:26:42.836Z,72.97
2023-03-07T19:29:12.147Z,72.53
2023-03-07T19:31:39.347Z,72.62
2023-03-07T19:34:06.688Z,73.14
2023-03-07T19:36:35.308Z,73.00
2023-03-07T19:39:02.434Z,72.07
2023-03-07T19:41:31.575Z,73.02
2023-03-07T19:44:00.239Z,73.21
2023-03-07T19:46:28.169Z,73.43
2023-03-07T19:48:56.046Z,73.16
2023-03-07T19:51:25.466Z,73.23
2023-03-07T19:53:55.314Z,73.48
2023-03-07T19:56:29.538Z,72.73
2023-03-07T19:58:58.280Z,72.85
2023-03-07T20:01:26.773Z,73.00
2023-03-07T20:03:54.563Z,72.29
2023-03-07T20:06:24.513Z,72.34
2023-03-07T20:08:53.200Z,73.24
2023-03-07T20:11:27.177Z,73.48
2023-03-07T20:13:56.360Z,73.02
2023-03-07T20:16:23.958Z,73.56
2023-03-07T20:18:52.675Z,73.63
2023-03-07T20:21:21.525Z,72.84
2023-03-07T20:23:49.611Z,73.21
2023-03-07T20:26:36.803Z,73.27
2023-03-07T20:29:06.646Z,72.59
2023-03-07T20:31:34.701Z,72.63
2023-03-07T20:34:05.373Z,73.38
2023-03-07T20:36:36.811Z,72.79
2023-03-07T20:39:08.738Z,72.87
2023-03-07T20:41:37.664Z,73.39
2023-03-07T20:44:07.013Z,72.66
2023-03-07T20:46:35.449Z,73.23
2023-03-07T20:49:02.641Z,72.77
2023-03-07T20:51:35.963Z,73.27
2023-03-07T20:54:10.869Z,72.88
2023-03-07T20:56:39.283Z,72.57
2023-03-07T20:59:07.369Z,73.33
2023-03-07T21:01:35.669Z,73.00
2023-03-07T21:04:06.383Z,72.74
2023-03-07T21:06:37.779Z,73.24
2023-03-07T21:09:08.190Z,72.92
2023-03-07T21:11:36.541Z,73.48
2023-03-07T21:14:04.051Z,73.39
2023-03-07T21:16:31.150Z,73.72
2023-03-07T21:19:01.684Z,72.87
2023-03-07T21:21:30.548Z,72.83
2023-03-07T21:23:57.982Z,73.44
2023-03-07T21:26:27.515Z,73.63
2023-03-07T21:28:55.004Z,73.23
2023-03-07T21:31:24.854Z,72.88
2023-03-07T21:33:57.715Z,73.43
2023-03-07T21:36:29.332Z,72.94
2023-03-07T21:38:56.444Z,73.03
2023-03-07T21:41:25.130Z,73.28
2023-03-07T21:43:56.590Z,73.07
2023-03-07T21:46:24.328Z,73.13
2023-03-07T21:48:51.648Z,72.95
2023-03-07T21:51:18.896Z,73.02
2023-03-07T21:53:45.899Z,73.47
2023-03-07T21:56:17.192Z,73.78
2023-03-07T21:58:48.563Z,72.88
2023-03-07T22:01:21.623Z,73.73
2023-03-07T22:03:52.241Z,73.58
2023-03-07T22:06:19.452Z,73.71
2023-03-07T22:08:46.404Z,73.58
2023-03-07T22:11:13.863Z,72.95
2023-03-07T22:13:41.985Z,73.32
2023-03-07T22:16:16.951Z,73.88
2023-03-07T22:18:45.804Z,73.98
2023-03-07T22:21:14.765Z,73.95
2023-03-07T22:23:42.434Z,73.11
2023-03-07T22:26:11.876Z,73.35
2023-03-07T22:28:40.999Z,73.63
2023-03-07T22:31:11.066Z,73.71
2023-03-07T22:33:38.547Z,73.31
2023-03-07T22:36:07.601Z,73.33
2023-03-07T22:38:34.813Z,73.29
2023-03-07T22:41:07.398Z,73.75
2023-03-07T22:43:35.786Z,73.37
2023-03-07T22:46:03.460Z,73.20
2023-03-07T22:48:31.266Z,73.49
2023-03-07T22:50:58.968Z,73.32
2023-03-07T22:53:33.524Z,73.65
2023-03-07T22:56:01.487Z,73.41
2023-03-07T22:58:29.712Z,73.30
2023-03-07T23:00:56.850Z,73.76
2023-03-07T23:03:24.012Z,73.23
2023-03-07T23:05:51.146Z,73.94
2023-03-07T23:08:18.172Z,73.55
2023-03-07T23:10:45.140Z,73.10
2023-03-07T23:13:12.123Z,73.74
2023-03-07T23:15:41.160Z,73.50
2023-03-07T23:18:08.490Z,73.34
2023-03-07T23:20:38.890Z,73.95
2023-03-07T23:23:06.290Z,73.67
2023-03-07T23:25:33.879Z,73.48
2023-03-07T23:28:00.835Z,74.15
2023-03-07T23:30:27.774Z,73.62
2023-03-07T23:32:55.637Z,73.47
2023-03-07T23:35:23.862Z,73.49
2023-03-07T23:37:50.882Z,73.89
2023-03-07T23:40:18.113Z,73.99
2023-03-07T23:42:45.097Z,73.53
2023-03-07T23:45:12.110Z,73.60
2023-03-07T23:47:39.669Z,73.44
2023-03-07T23:50:07.825Z,73.94
2023-03-07T23:52:34.861Z,73.68
2023-03-07T23:55:01.871Z,74.06
2023-03-07T23:57:28.929Z,73.37
2023-03-07T23:59:55.955Z,73.80
